sensor_id;sensor_type;location;lat;lon;timestamp;pressure;altitude;pressure_sealevel;temperature;humidity
55675;BME280;41562;44.330;23.802;2023-04-25T00:00:58;99357.06;;;13.25;100.00
55675;BME280;41562;44.330;23.802;2023-04-25T00:03:25;99357.34;;;13.24;100.00
55675;BME280;41562;44.330;23.802;2023-04-25T00:05:53;99353.06;;;13.14;100.00
55675;BME280;41562;44.330;23.802;2023-04-25T00:08:20;99347.75;;;13.01;100.00
55675;BME280;41562;44.330;23.802;2023-04-25T00:10:48;99344.69;;;13.16;100.00
55675;BME280;41562;44.330;23.802;2023-04-25T00:13:16;99339.94;;;12.82;100.00
55675;BME280;41562;44.330;23.802;2023-04-25T00:15:43;99336.72;;;13.02;100.00
55675;BME280;41562;44.330;23.802;2023-04-25T00:18:11;99336.63;;;13.16;100.00
55675;BME280;41562;44.330;23.802;2023-04-25T00:20:39;99342.56;;;13.04;100.00
55675;BME280;41562;44.330;23.802;2023-04-25T00:23:06;99330.66;;;13.19;100.00
55675;BME280;41562;44.330;23.802;2023-04-25T00:25:33;99328.03;;;13.05;100.00
55675;BME280;41562;44.330;23.802;2023-04-25T00:28:01;99332.25;;;13.20;100.00
55675;BME280;41562;44.330;23.802;2023-04-25T00:30:28;99327.19;;;13.18;100.00
55675;BME280;41562;44.330;23.802;2023-04-25T00:32:55;99322.81;;;13.31;100.00
55675;BME280;41562;44.330;23.802;2023-04-25T00:35:23;99325.03;;;13.38;100.00
55675;BME280;41562;44.330;23.802;2023-04-25T00:37:50;99324.19;;;13.28;100.00
55675;BME280;41562;44.330;23.802;2023-04-25T00:40:17;99314.25;;;13.29;100.00
55675;BME280;41562;44.330;23.802;2023-04-25T00:42:46;99315.25;;;13.33;100.00
55675;BME280;41562;44.330;23.802;2023-04-25T00:45:14;99309.72;;;13.38;100.00
55675;BME280;41562;44.330;23.802;2023-04-25T00:47:41;99301.94;;;13.28;100.00
55675;BME280;41562;44.330;23.802;2023-04-25T00:50:10;99298.47;;;13.27;100.00
55675;BME280;41562;44.330;23.802;2023-04-25T00:52:39;99291.41;;;13.09;100.00
55675;BME280;41562;44.330;23.802;2023-04-25T00:55:07;99292.44;;;13.13;100.00
55675;BME280;41562;44.330;23.802;2023-04-25T00:57:35;99290.84;;;13.12;100.00
55675;BME280;41562;44.330;23.802;2023-04-25T01:00:03;99295.78;;;12.88;100.00
55675;BME280;41562;44.330;23.802;2023-04-25T01:02:32;99284.16;;;13.01;100.00
55675;BME280;41562;44.330;23.802;2023-04-25T01:04:59;99286.69;;;13.06;100.00
55675;BME280;41562;44.330;23.802;2023-04-25T01:07:27;99281.84;;;13.17;100.00
55675;BME280;41562;44.330;23.802;2023-04-25T01:09:54;99288.72;;;13.01;100.00
55675;BME280;41562;44.330;23.802;2023-04-25T01:12:22;99292.44;;;13.13;100.00
55675;BME280;41562;44.330;23.802;2023-04-25T01:14:50;99287.63;;;13.02;100.00
55675;BME280;41562;44.330;23.802;2023-04-25T01:17:18;99289.38;;;13.06;100.00
55675;BME280;41562;44.330;23.802;2023-04-25T01:19:45;99290.69;;;13.17;100.00
55675;BME280;41562;44.330;23.802;2023-04-25T01:22:12;99283.94;;;13.28;100.00
55675;BME280;41562;44.330;23.802;2023-04-25T01:24:40;99285.09;;;13.05;100.00
55675;BME280;41562;44.330;23.802;2023-04-25T01:27:07;99274.44;;;13.14;100.00
55675;BME280;41562;44.330;23.802;2023-04-25T01:29:35;99276.91;;;13.10;100.00
55675;BME280;41562;44.330;23.802;2023-04-25T01:32:03;99272.63;;;13.01;100.00
55675;BME280;41562;44.330;23.802;2023-04-25T01:34:30;99277.34;;;13.04;100.00
55675;BME280;41562;44.330;23.802;2023-04-25T01:36:59;99282.56;;;13.00;100.00
55675;BME280;41562;44.330;23.802;2023-04-25T01:39:27;99278.94;;;13.05;100.00
55675;BME280;41562;44.330;23.802;2023-04-25T01:41:55;99277.00;;;12.97;100.00
55675;BME280;41562;44.330;23.802;2023-04-25T01:44:23;99273.50;;;12.87;100.00
55675;BME280;41562;44.330;23.802;2023-04-25T01:46:51;99270.09;;;12.96;100.00
55675;BME280;41562;44.330;23.802;2023-04-25T01:49:19;99269.72;;;12.88;100.00
55675;BME280;41562;44.330;23.802;2023-04-25T01:51:46;99271.34;;;12.98;100.00
55675;BME280;41562;44.330;23.802;2023-04-25T01:54:13;99269.63;;;13.02;100.00
55675;BME280;41562;44.330;23.802;2023-04-25T01:56:40;99269.38;;;13.12;100.00
55675;BME280;41562;44.330;23.802;2023-04-25T01:59:08;99270.31;;;12.77;100.00
55675;BME280;41562;44.330;23.802;2023-04-25T02:01:35;99267.06;;;12.97;100.00
55675;BME280;41562;44.330;23.802;2023-04-25T02:04:02;99260.75;;;12.93;100.00
55675;BME280;41562;44.330;23.802;2023-04-25T02:06:30;99261.25;;;13.04;100.00
55675;BME280;41562;44.330;23.802;2023-04-25T02:08:57;99253.66;;;12.97;100.00
55675;BME280;41562;44.330;23.802;2023-04-25T02:11:24;99250.66;;;12.99;100.00
55675;BME280;41562;44.330;23.802;2023-04-25T02:13:51;99236.97;;;12.69;100.00
55675;BME280;41562;44.330;23.802;2023-04-25T02:16:19;99243.00;;;12.75;100.00
55675;BME280;41562;44.330;23.802;2023-04-25T02:18:47;99235.75;;;12.84;100.00
55675;BME280;41562;44.330;23.802;2023-04-25T02:21:15;99242.72;;;12.85;100.00
55675;BME280;41562;44.330;23.802;2023-04-25T02:23:43;99240.69;;;12.90;100.00
55675;BME280;41562;44.330;23.802;2023-04-25T02:26:10;99243.94;;;12.79;100.00
55675;BME280;41562;44.330;23.802;2023-04-25T02:28:37;99243.34;;;12.82;100.00
55675;BME280;41562;44.330;23.802;2023-04-25T02:31:04;99241.91;;;12.76;100.00
55675;BME280;41562;44.330;23.802;2023-04-25T02:33:32;99238.72;;;12.74;100.00
55675;BME280;41562;44.330;23.802;2023-04-25T02:35:59;99242.56;;;12.90;100.00
55675;BME280;41562;44.330;23.802;2023-04-25T02:38:26;99245.41;;;12.85;100.00
55675;BME280;41562;44.330;23.802;2023-04-25T02:40:53;99246.19;;;12.85;100.00
55675;BME280;41562;44.330;23.802;2023-04-25T02:43:20;99246.84;;;12.91;100.00
55675;BME280;41562;44.330;23.802;2023-04-25T02:45:48;99247.28;;;12.84;100.00
55675;BME280;41562;44.330;23.802;2023-04-25T02:48:15;99247.34;;;12.93;100.00
55675;BME280;41562;44.330;23.802;2023-04-25T02:50:43;99250.94;;;12.88;100.00
55675;BME280;41562;44.330;23.802;2023-04-25T02:53:10;99251.53;;;12.77;100.00
55675;BME280;41562;44.330;23.802;2023-04-25T02:55:37;99247.47;;;12.88;100.00
55675;BME280;41562;44.330;23.802;2023-04-25T02:58:05;99243.50;;;12.85;100.00
55675;BME280;41562;44.330;23.802;2023-04-25T03:00:32;99249.06;;;12.98;100.00
55675;BME280;41562;44.330;23.802;2023-04-25T03:02:59;99242.31;;;13.09;100.00
55675;BME280;41562;44.330;23.802;2023-04-25T03:05:27;99247.38;;;13.10;100.00
55675;BME280;41562;44.330;23.802;2023-04-25T03:07:54;99247.25;;;13.15;100.00
55675;BME280;41562;44.330;23.802;2023-04-25T03:10:22;99249.13;;;13.06;100.00
55675;BME280;41562;44.330;23.802;2023-04-25T03:12:49;99242.09;;;12.88;100.00
55675;BME280;41562;44.330;23.802;2023-04-25T03:15:16;99239.13;;;12.89;100.00
55675;BME280;41562;44.330;23.802;2023-04-25T03:17:44;99240.53;;;12.87;100.00
55675;BME280;41562;44.330;23.802;2023-04-25T03:20:11;99241.34;;;12.96;100.00
55675;BME280;41562;44.330;23.802;2023-04-25T03:22:38;99247.81;;;12.95;100.00
55675;BME280;41562;44.330;23.802;2023-04-25T03:25:06;99239.81;;;12.73;100.00
55675;BME280;41562;44.330;23.802;2023-04-25T03:27:33;99231.03;;;12.81;100.00
55675;BME280;41562;44.330;23.802;2023-04-25T03:30:01;99227.56;;;12.80;100.00
55675;BME280;41562;44.330;23.802;2023-04-25T03:32:28;99224.38;;;12.70;100.00
55675;BME280;41562;44.330;23.802;2023-04-25T03:34:55;99221.59;;;13.66;100.00
55675;BME280;41562;44.330;23.802;2023-04-25T03:37:22;99220.81;;;13.57;100.00
55675;BME280;41562;44.330;23.802;2023-04-25T03:39:50;99223.94;;;14.10;100.00
55675;BME280;41562;44.330;23.802;2023-04-25T03:42:37;99222.75;;;14.93;100.00
55675;BME280;41562;44.330;23.802;2023-04-25T03:45:05;99216.03;;;15.57;100.00
55675;BME280;41562;44.330;23.802;2023-04-25T03:47:32;99214.81;;;15.25;100.00
55675;BME280;41562;44.330;23.802;2023-04-25T03:49:59;99220.88;;;16.05;100.00
55675;BME280;41562;44.330;23.802;2023-04-25T03:52:27;99220.00;;;15.60;100.00
55675;BME280;41562;44.330;23.802;2023-04-25T03:54:55;99223.00;;;14.79;100.00
55675;BME280;41562;44.330;23.802;2023-04-25T03:57:23;99216.56;;;14.63;100.00
55675;BME280;41562;44.330;23.802;2023-04-25T03:59:51;99220.13;;;14.84;100.00
55675;BME280;41562;44.330;23.802;2023-04-25T04:02:19;99218.66;;;14.86;100.00
55675;BME280;41562;44.330;23.802;2023-04-25T04:04:46;99211.66;;;14.65;100.00
55675;BME280;41562;44.330;23.802;2023-04-25T04:07:15;99215.50;;;14.29;100.00
55675;BME280;41562;44.330;23.802;2023-04-25T04:09:43;99221.69;;;14.47;100.00
55675;BME280;41562;44.330;23.802;2023-04-25T04:12:11;99227.00;;;14.64;100.00
55675;BME280;41562;44.330;23.802;2023-04-25T04:14:38;99230.53;;;14.47;100.00
55675;BME280;41562;44.330;23.802;2023-04-25T04:17:07;99227.53;;;14.23;100.00
55675;BME280;41562;44.330;23.802;2023-04-25T04:19:35;99221.09;;;14.16;100.00
55675;BME280;41562;44.330;23.802;2023-04-25T04:22:03;99214.81;;;13.77;100.00
55675;BME280;41562;44.330;23.802;2023-04-25T04:24:31;99223.50;;;13.57;100.00
55675;BME280;41562;44.330;23.802;2023-04-25T04:26:58;99216.22;;;13.49;100.00
55675;BME280;41562;44.330;23.802;2023-04-25T04:29:25;99226.75;;;13.28;100.00
55675;BME280;41562;44.330;23.802;2023-04-25T04:31:53;99232.06;;;13.11;100.00
55675;BME280;41562;44.330;23.802;2023-04-25T04:34:20;99242.53;;;13.12;100.00
55675;BME280;41562;44.330;23.802;2023-04-25T04:36:47;99233.56;;;13.25;100.00
55675;BME280;41562;44.330;23.802;2023-04-25T04:39:15;99235.28;;;13.21;100.00
55675;BME280;41562;44.330;23.802;2023-04-25T04:42:00;99240.63;;;13.21;100.00
55675;BME280;41562;44.330;23.802;2023-04-25T04:44:45;99242.09;;;13.27;100.00
55675;BME280;41562;44.330;23.802;2023-04-25T04:47:34;99249.97;;;13.24;100.00
55675;BME280;41562;44.330;23.802;2023-04-25T04:50:20;99246.38;;;13.37;100.00
55675;BME280;41562;44.330;23.802;2023-04-25T04:52:50;99242.09;;;13.27;100.00
55675;BME280;41562;44.330;23.802;2023-04-25T04:55:26;99238.94;;;13.25;100.00
55675;BME280;41562;44.330;23.802;2023-04-25T04:57:58;99243.66;;;13.28;100.00
55675;BME280;41562;44.330;23.802;2023-04-25T05:00:33;99241.97;;;13.50;100.00
55675;BME280;41562;44.330;23.802;2023-04-25T05:03:04;99244.50;;;13.55;100.00
55675;BME280;41562;44.330;23.802;2023-04-25T05:05:35;99244.50;;;13.46;100.00
55675;BME280;41562;44.330;23.802;2023-04-25T05:08:08;99245.91;;;13.44;100.00
55675;BME280;41562;44.330;23.802;2023-04-25T05:10:41;99244.78;;;13.27;100.00
55675;BME280;41562;44.330;23.802;2023-04-25T05:13:11;99246.97;;;13.25;100.00
55675;BME280;41562;44.330;23.802;2023-04-25T05:15:41;99242.59;;;13.47;100.00
55675;BME280;41562;44.330;23.802;2023-04-25T05:18:12;99245.78;;;13.57;100.00
55675;BME280;41562;44.330;23.802;2023-04-25T05:20:40;99237.41;;;13.76;100.00
55675;BME280;41562;44.330;23.802;2023-04-25T05:23:11;99237.69;;;13.92;100.00
55675;BME280;41562;44.330;23.802;2023-04-25T05:25:43;99238.19;;;13.85;100.00
55675;BME280;41562;44.330;23.802;2023-04-25T05:28:13;99231.25;;;13.84;100.00
55675;BME280;41562;44.330;23.802;2023-04-25T05:30:44;99229.03;;;13.95;100.00
55675;BME280;41562;44.330;23.802;2023-04-25T05:33:15;99229.97;;;14.07;100.00
55675;BME280;41562;44.330;23.802;2023-04-25T05:35:43;99229.16;;;13.98;100.00
55675;BME280;41562;44.330;23.802;2023-04-25T05:38:13;99225.06;;;13.92;100.00
55675;BME280;41562;44.330;23.802;2023-04-25T05:40:44;99226.94;;;13.92;100.00
55675;BME280;41562;44.330;23.802;2023-04-25T05:43:12;99223.66;;;13.95;100.00
55675;BME280;41562;44.330;23.802;2023-04-25T05:45:40;99223.00;;;14.06;100.00
55675;BME280;41562;44.330;23.802;2023-04-25T05:48:11;99231.03;;;14.24;100.00
55675;BME280;41562;44.330;23.802;2023-04-25T05:50:42;99229.44;;;14.23;100.00
55675;BME280;41562;44.330;23.802;2023-04-25T05:53:13;99227.22;;;14.33;100.00
55675;BME280;41562;44.330;23.802;2023-04-25T05:55:43;99227.69;;;14.44;100.00
55675;BME280;41562;44.330;23.802;2023-04-25T05:58:14;99230.53;;;14.47;100.00
55675;BME280;41562;44.330;23.802;2023-04-25T06:00:45;99233.47;;;14.72;100.00
55675;BME280;41562;44.330;23.802;2023-04-25T06:03:15;99231.97;;;14.92;100.00
55675;BME280;41562;44.330;23.802;2023-04-25T06:05:49;99225.50;;;14.84;100.00
55675;BME280;41562;44.330;23.802;2023-04-25T06:08:20;99225.19;;;15.15;100.00
55675;BME280;41562;44.330;23.802;2023-04-25T06:10:50;99229.56;;;15.19;100.00
55675;BME280;41562;44.330;23.802;2023-04-25T06:13:18;99234.59;;;15.80;100.00
55675;BME280;41562;44.330;23.802;2023-04-25T06:15:46;99230.16;;;15.96;100.00
55675;BME280;41562;44.330;23.802;2023-04-25T06:18:16;99227.63;;;15.79;100.00
55675;BME280;41562;44.330;23.802;2023-04-25T06:20:44;99236.09;;;16.22;100.00
55675;BME280;41562;44.330;23.802;2023-04-25T06:23:18;99235.56;;;16.29;100.00
55675;BME280;41562;44.330;23.802;2023-04-25T06:25:47;99228.47;;;16.24;95.77
55675;BME280;41562;44.330;23.802;2023-04-25T06:28:16;99234.19;;;16.23;96.31
55675;BME280;41562;44.330;23.802;2023-04-25T06:30:44;99225.09;;;16.27;97.75
55675;BME280;41562;44.330;23.802;2023-04-25T06:33:14;99223.13;;;16.48;99.44
55675;BME280;41562;44.330;23.802;2023-04-25T06:35:45;99227.00;;;16.60;97.71
55675;BME280;41562;44.330;23.802;2023-04-25T06:38:26;99220.72;;;17.16;98.04
55675;BME280;41562;44.330;23.802;2023-04-25T06:40:54;99227.09;;;17.36;92.63
55675;BME280;41562;44.330;23.802;2023-04-25T06:43:22;99230.84;;;17.07;94.37
55675;BME280;41562;44.330;23.802;2023-04-25T06:45:55;99240.97;;;16.74;97.73
55675;BME280;41562;44.330;23.802;2023-04-25T06:48:27;99237.28;;;16.45;95.65
55675;BME280;41562;44.330;23.802;2023-04-25T06:51:01;99243.50;;;16.25;93.57
55675;BME280;41562;44.330;23.802;2023-04-25T06:53:33;99244.47;;;16.08;92.82
55675;BME280;41562;44.330;23.802;2023-04-25T06:56:03;99243.16;;;15.94;93.54
55675;BME280;41562;44.330;23.802;2023-04-25T06:58:31;99243.38;;;15.89;98.42
55675;BME280;41562;44.330;23.802;2023-04-25T07:01:06;99248.69;;;16.18;93.88
55675;BME280;41562;44.330;23.802;2023-04-25T07:03:43;99245.84;;;16.47;90.77
55675;BME280;41562;44.330;23.802;2023-04-25T07:06:11;99246.00;;;16.18;93.22
55675;BME280;41562;44.330;23.802;2023-04-25T07:08:39;99240.06;;;16.25;91.17
55675;BME280;41562;44.330;23.802;2023-04-25T07:11:09;99239.94;;;16.00;96.46
55675;BME280;41562;44.330;23.802;2023-04-25T07:13:39;99242.84;;;15.95;94.36
55675;BME280;41562;44.330;23.802;2023-04-25T07:16:07;99239.78;;;15.85;93.90
55675;BME280;41562;44.330;23.802;2023-04-25T07:18:34;99242.84;;;15.75;94.68
55675;BME280;41562;44.330;23.802;2023-04-25T07:21:02;99244.56;;;15.58;94.72
55675;BME280;41562;44.330;23.802;2023-04-25T07:23:30;99242.16;;;15.36;98.09
55675;BME280;41562;44.330;23.802;2023-04-25T07:26:00;99251.72;;;15.25;98.09
55675;BME280;41562;44.330;23.802;2023-04-25T07:28:28;99246.91;;;15.10;99.61
55675;BME280;41562;44.330;23.802;2023-04-25T07:31:01;99240.03;;;15.21;97.79
55675;BME280;41562;44.330;23.802;2023-04-25T07:33:29;99252.06;;;15.23;94.30
55675;BME280;41562;44.330;23.802;2023-04-25T07:35:59;99246.34;;;15.25;93.78
55675;BME280;41562;44.330;23.802;2023-04-25T07:38:27;99246.13;;;15.09;99.58
55675;BME280;41562;44.330;23.802;2023-04-25T07:40:55;99247.50;;;15.15;97.71
55675;BME280;41562;44.330;23.802;2023-04-25T07:43:22;99246.81;;;15.27;96.36
55675;BME280;41562;44.330;23.802;2023-04-25T07:45:52;99248.94;;;15.42;96.45
55675;BME280;41562;44.330;23.802;2023-04-25T07:48:32;99243.28;;;15.35;95.40
55675;BME280;41562;44.330;23.802;2023-04-25T07:51:03;99239.72;;;15.43;95.59
55675;BME280;41562;44.330;23.802;2023-04-25T07:53:33;99237.03;;;15.43;96.78
55675;BME280;41562;44.330;23.802;2023-04-25T07:56:07;99235.22;;;15.56;97.87
55675;BME280;41562;44.330;23.802;2023-04-25T07:58:36;99238.78;;;15.68;95.91
55675;BME280;41562;44.330;23.802;2023-04-25T08:01:04;99249.72;;;15.72;95.29
55675;BME280;41562;44.330;23.802;2023-04-25T08:03:31;99238.72;;;15.98;93.30
55675;BME280;41562;44.330;23.802;2023-04-25T08:05:59;99249.41;;;16.06;92.12
55675;BME280;41562;44.330;23.802;2023-04-25T08:08:31;99252.97;;;15.98;92.45
55675;BME280;41562;44.330;23.802;2023-04-25T08:11:02;99260.03;;;15.91;94.42
55675;BME280;41562;44.330;23.802;2023-04-25T08:13:29;99264.75;;;15.94;94.32
55675;BME280;41562;44.330;23.802;2023-04-25T08:16:03;99265.63;;;15.86;93.99
55675;BME280;41562;44.330;23.802;2023-04-25T08:18:36;99260.84;;;16.24;94.39
55675;BME280;41562;44.330;23.802;2023-04-25T08:21:03;99261.22;;;16.80;88.76
55675;BME280;41562;44.330;23.802;2023-04-25T08:23:31;99266.72;;;16.96;89.64
55675;BME280;41562;44.330;23.802;2023-04-25T08:25:58;99269.31;;;17.41;87.19
55675;BME280;41562;44.330;23.802;2023-04-25T08:28:26;99268.00;;;16.98;90.74
55675;BME280;41562;44.330;23.802;2023-04-25T08:30:53;99266.53;;;17.13;89.46
55675;BME280;41562;44.330;23.802;2023-04-25T08:33:21;99263.59;;;17.18;89.60
55675;BME280;41562;44.330;23.802;2023-04-25T08:35:49;99261.13;;;17.25;87.93
55675;BME280;41562;44.330;23.802;2023-04-25T08:38:17;99258.53;;;16.92;86.11
55675;BME280;41562;44.330;23.802;2023-04-25T08:40:49;99256.03;;;16.63;86.31
55675;BME280;41562;44.330;23.802;2023-04-25T08:43:19;99271.09;;;16.76;85.85
55675;BME280;41562;44.330;23.802;2023-04-25T08:45:47;99263.13;;;16.92;83.82
55675;BME280;41562;44.330;23.802;2023-04-25T08:48:16;99271.94;;;17.37;84.18
55675;BME280;41562;44.330;23.802;2023-04-25T08:50:53;99271.81;;;17.21;85.14
55675;BME280;41562;44.330;23.802;2023-04-25T08:53:25;99286.25;;;17.13;84.45
55675;BME280;41562;44.330;23.802;2023-04-25T08:55:59;99294.78;;;17.15;84.74
55675;BME280;41562;44.330;23.802;2023-04-25T08:58:28;99289.34;;;17.40;82.18
55675;BME280;41562;44.330;23.802;2023-04-25T09:00:55;99290.06;;;17.37;81.52
55675;BME280;41562;44.330;23.802;2023-04-25T09:03:23;99292.53;;;17.17;81.48
55675;BME280;41562;44.330;23.802;2023-04-25T09:05:51;99287.03;;;17.90;78.25
55675;BME280;41562;44.330;23.802;2023-04-25T09:08:18;99290.16;;;17.64;77.36
55675;BME280;41562;44.330;23.802;2023-04-25T09:10:45;99287.75;;;17.87;75.04
55675;BME280;41562;44.330;23.802;2023-04-25T09:13:14;99278.78;;;17.22;76.46
55675;BME280;41562;44.330;23.802;2023-04-25T09:21:07;99284.66;;;17.00;77.06
55675;BME280;41562;44.330;23.802;2023-04-25T09:23:43;99275.19;;;16.94;77.38
55675;BME280;41562;44.330;23.802;2023-04-25T09:26:14;99276.09;;;16.98;74.19
55675;BME280;41562;44.330;23.802;2023-04-25T09:28:42;99275.28;;;16.85;74.71
55675;BME280;41562;44.330;23.802;2023-04-25T09:31:12;99276.00;;;16.49;76.81
55675;BME280;41562;44.330;23.802;2023-04-25T09:33:40;99270.97;;;16.60;77.63
55675;BME280;41562;44.330;23.802;2023-04-25T09:36:09;99270.66;;;16.62;78.21
55675;BME280;41562;44.330;23.802;2023-04-25T09:38:42;99268.41;;;16.76;77.20
55675;BME280;41562;44.330;23.802;2023-04-25T09:41:10;99267.25;;;16.65;77.87
55675;BME280;41562;44.330;23.802;2023-04-25T09:43:39;99268.28;;;16.60;79.28
55675;BME280;41562;44.330;23.802;2023-04-25T09:46:10;99264.84;;;16.51;80.10
55675;BME280;41562;44.330;23.802;2023-04-25T09:48:38;99270.47;;;16.58;78.99
55675;BME280;41562;44.330;23.802;2023-04-25T09:51:10;99266.25;;;16.69;80.95
55675;BME280;41562;44.330;23.802;2023-04-25T09:53:40;99264.16;;;16.87;80.03
55675;BME280;41562;44.330;23.802;2023-04-25T09:56:10;99258.19;;;16.94;79.47
55675;BME280;41562;44.330;23.802;2023-04-25T09:58:39;99254.47;;;17.10;77.17
55675;BME280;41562;44.330;23.802;2023-04-25T10:01:09;99249.75;;;17.07;79.64
55675;BME280;41562;44.330;23.802;2023-04-25T10:03:38;99250.66;;;17.11;80.72
55675;BME280;41562;44.330;23.802;2023-04-25T10:06:08;99244.94;;;17.13;77.99
55675;BME280;41562;44.330;23.802;2023-04-25T10:08:37;99242.41;;;17.20;78.18
55675;BME280;41562;44.330;23.802;2023-04-25T10:11:06;99232.66;;;17.80;80.98
55675;BME280;41562;44.330;23.802;2023-04-25T10:13:35;99230.78;;;18.24;76.78
55675;BME280;41562;44.330;23.802;2023-04-25T10:16:04;99234.78;;;18.14;74.91
55675;BME280;41562;44.330;23.802;2023-04-25T10:18:32;99224.63;;;17.95;74.93
55675;BME280;41562;44.330;23.802;2023-04-25T10:21:01;99217.97;;;17.93;75.69
55675;BME280;41562;44.330;23.802;2023-04-25T10:23:30;99215.53;;;18.03;76.38
55675;BME280;41562;44.330;23.802;2023-04-25T10:25:58;99220.94;;;18.31;74.29
55675;BME280;41562;44.330;23.802;2023-04-25T10:28:25;99220.66;;;18.21;74.49
55675;BME280;41562;44.330;23.802;2023-04-25T10:31:15;99216.72;;;17.90;76.12
55675;BME280;41562;44.330;23.802;2023-04-25T10:33:43;99215.94;;;17.90;76.25
55675;BME280;41562;44.330;23.802;2023-04-25T10:36:14;99214.56;;;17.68;74.40
55675;BME280;41562;44.330;23.802;2023-04-25T10:38:42;99211.09;;;17.83;74.22
55675;BME280;41562;44.330;23.802;2023-04-25T10:41:11;99205.44;;;18.00;72.62
55675;BME280;41562;44.330;23.802;2023-04-25T10:43:50;99197.16;;;17.81;75.67
55675;BME280;41562;44.330;23.802;2023-04-25T10:46:28;99196.25;;;17.89;74.23
55675;BME280;41562;44.330;23.802;2023-04-25T10:49:01;99195.66;;;18.12;73.32
55675;BME280;41562;44.330;23.802;2023-04-25T10:51:31;99194.84;;;18.39;73.51
55675;BME280;41562;44.330;23.802;2023-04-25T10:54:17;99194.31;;;18.49;70.59
55675;BME280;41562;44.330;23.802;2023-04-25T10:56:45;99183.81;;;18.47;72.01
55675;BME280;41562;44.330;23.802;2023-04-25T10:59:14;99179.03;;;18.41;71.99
55675;BME280;41562;44.330;23.802;2023-04-25T11:01:43;99174.91;;;18.47;71.89
55675;BME280;41562;44.330;23.802;2023-04-25T11:04:28;99175.81;;;18.51;73.20
55675;BME280;41562;44.330;23.802;2023-04-25T11:09:35;99179.53;;;18.46;71.87
55675;BME280;41562;44.330;23.802;2023-04-25T11:12:03;99179.41;;;18.39;71.76
55675;BME280;41562;44.330;23.802;2023-04-25T11:14:31;99176.59;;;17.92;74.92
55675;BME280;41562;44.330;23.802;2023-04-25T11:16:59;99168.22;;;17.82;75.63
55675;BME280;41562;44.330;23.802;2023-04-25T11:19:28;99178.09;;;17.62;76.48
55675;BME280;41562;44.330;23.802;2023-04-25T11:21:57;99187.00;;;17.50;77.94
55675;BME280;41562;44.330;23.802;2023-04-25T11:24:28;99196.28;;;16.88;78.37
55675;BME280;41562;44.330;23.802;2023-04-25T11:26:58;99228.66;;;16.19;79.47
55675;BME280;41562;44.330;23.802;2023-04-25T11:29:33;99234.69;;;15.62;85.87
55675;BME280;41562;44.330;23.802;2023-04-25T11:32:00;99245.19;;;15.35;94.53
55675;BME280;41562;44.330;23.802;2023-04-25T11:34:31;99253.19;;;14.84;99.97
55675;BME280;41562;44.330;23.802;2023-04-25T11:37:00;99246.69;;;14.39;100.00
55675;BME280;41562;44.330;23.802;2023-04-25T11:39:28;99246.34;;;14.32;100.00
55675;BME280;41562;44.330;23.802;2023-04-25T11:41:55;99242.25;;;14.26;100.00
55675;BME280;41562;44.330;23.802;2023-04-25T11:44:23;99244.16;;;14.17;100.00
55675;BME280;41562;44.330;23.802;2023-04-25T11:46:50;99233.41;;;14.17;100.00
55675;BME280;41562;44.330;23.802;2023-04-25T11:49:18;99227.44;;;13.94;100.00
55675;BME280;41562;44.330;23.802;2023-04-25T11:51:47;99229.66;;;14.09;100.00
55675;BME280;41562;44.330;23.802;2023-04-25T11:54:15;99229.78;;;14.04;100.00
55675;BME280;41562;44.330;23.802;2023-04-25T11:56:43;99228.34;;;14.24;100.00
55675;BME280;41562;44.330;23.802;2023-04-25T11:59:11;99221.59;;;14.09;100.00
55675;BME280;41562;44.330;23.802;2023-04-25T12:01:58;99215.59;;;13.95;100.00
55675;BME280;41562;44.330;23.802;2023-04-25T12:04:25;99221.59;;;14.00;100.00
55675;BME280;41562;44.330;23.802;2023-04-25T12:06:54;99212.25;;;14.06;100.00
55675;BME280;41562;44.330;23.802;2023-04-25T12:09:31;99206.38;;;14.13;100.00
55675;BME280;41562;44.330;23.802;2023-04-25T12:12:00;99203.06;;;14.07;100.00
55675;BME280;41562;44.330;23.802;2023-04-25T12:14:29;99210.66;;;14.05;100.00
55675;BME280;41562;44.330;23.802;2023-04-25T12:17:02;99200.88;;;14.09;100.00
55675;BME280;41562;44.330;23.802;2023-04-25T12:19:37;99203.56;;;14.01;100.00
55675;BME280;41562;44.330;23.802;2023-04-25T12:22:19;99203.03;;;14.25;100.00
55675;BME280;41562;44.330;23.802;2023-04-25T12:24:46;99189.09;;;14.23;100.00
55675;BME280;41562;44.330;23.802;2023-04-25T12:27:15;99191.19;;;14.17;100.00
55675;BME280;41562;44.330;23.802;2023-04-25T12:29:54;99184.69;;;14.18;100.00
55675;BME280;41562;44.330;23.802;2023-04-25T12:32:22;99179.59;;;14.34;100.00
55675;BME280;41562;44.330;23.802;2023-04-25T12:34:49;99183.66;;;14.57;100.00
55675;BME280;41562;44.330;23.802;2023-04-25T12:37:17;99180.56;;;14.38;100.00
55675;BME280;41562;44.330;23.802;2023-04-25T12:39:44;99179.38;;;14.56;100.00
55675;BME280;41562;44.330;23.802;2023-04-25T12:42:11;99179.69;;;14.55;100.00
55675;BME280;41562;44.330;23.802;2023-04-25T12:44:39;99173.56;;;14.54;100.00
55675;BME280;41562;44.330;23.802;2023-04-25T12:47:06;99176.28;;;14.45;100.00
55675;BME280;41562;44.330;23.802;2023-04-25T12:49:34;99158.88;;;14.34;100.00
55675;BME280;41562;44.330;23.802;2023-04-25T12:52:02;99171.31;;;14.56;100.00
55675;BME280;41562;44.330;23.802;2023-04-25T12:54:29;99161.38;;;14.48;100.00
55675;BME280;41562;44.330;23.802;2023-04-25T12:56:56;99157.41;;;14.54;100.00
55675;BME280;41562;44.330;23.802;2023-04-25T12:59:23;99154.97;;;14.61;100.00
55675;BME280;41562;44.330;23.802;2023-04-25T13:01:51;99148.56;;;14.54;100.00